createdAt,value
2022-08-21T04:00:36.963Z,165.61
2022-08-21T04:01:22.166Z,206.37
2022-08-21T04:02:07.105Z,206.37
2022-08-21T04:02:52.073Z,206.37
2022-08-21T04:03:36.990Z,287.64
2022-08-21T04:04:22.143Z,287.64
2022-08-21T04:05:07.396Z,287.64
2022-08-21T04:05:53.375Z,287.64
2022-08-21T04:06:37.969Z,287.64
2022-08-21T04:07:22.984Z,287.64
2022-08-21T04:08:07.850Z,287.64
2022-08-21T04:08:52.684Z,287.64
2022-08-21T04:09:37.946Z,287.64
2022-08-21T04:10:22.797Z,287.64
2022-08-21T04:11:08.007Z,287.64
2022-08-21T04:11:52.974Z,287.64
2022-08-21T04:12:38.069Z,287.64
2022-08-21T04:13:22.925Z,287.64
2022-08-21T04:14:08.388Z,287.64
2022-08-21T04:14:53.238Z,287.64
2022-08-21T04:15:38.302Z,287.64
2022-08-21T04:16:24.169Z,287.64
2022-08-21T04:17:08.408Z,287.64
2022-08-21T04:17:53.312Z,287.64
2022-08-21T04:18:38.178Z,182.33
2022-08-21T04:19:23.245Z,221.33
2022-08-21T04:20:08.641Z,198.90
2022-08-21T04:20:53.488Z,198.90
2022-08-21T04:21:38.339Z,145.69
2022-08-21T04:22:23.191Z,145.69
2022-08-21T04:23:08.375Z,211.21
2022-08-21T04:23:53.302Z,220.01
2022-08-21T04:24:38.561Z,216.10
2022-08-21T04:25:23.519Z,223.92
2022-08-21T04:26:08.372Z,223.92
2022-08-21T04:26:53.731Z,202.41
2022-08-21T04:27:38.591Z,212.19
2022-08-21T04:28:23.843Z,222.75
2022-08-21T04:29:10.410Z,188.72
2022-08-21T04:29:54.061Z,215.12
2022-08-21T04:30:38.699Z,198.50
2022-08-21T04:31:23.764Z,204.36
2022-08-21T04:32:09.275Z,211.21
2022-08-21T04:32:54.171Z,202.41
2022-08-21T04:33:39.137Z,209.25
2022-08-21T04:34:24.089Z,195.56
2022-08-21T04:35:09.147Z,218.05
2022-08-21T04:35:54.416Z,197.52
2022-08-21T04:36:39.263Z,193.70
2022-08-21T04:37:24.520Z,208.27
2022-08-21T04:38:09.589Z,209.25
2022-08-21T04:38:54.740Z,215.12
2022-08-21T04:39:39.519Z,219.03
2022-08-21T04:40:24.592Z,171.12
2022-08-21T04:41:09.801Z,146.25
2022-08-21T04:41:55.268Z,142.35
2022-08-21T04:42:40.093Z,143.74
2022-08-21T04:43:24.878Z,135.92
2022-08-21T04:44:10.032Z,157.43
2022-08-21T04:44:55.367Z,140.81
2022-08-21T04:45:39.946Z,157.43
2022-08-21T04:46:25.144Z,138.85
2022-08-21T04:47:10.378Z,186.76
2022-08-21T04:47:55.723Z,132.01
2022-08-21T04:48:40.468Z,128.09
2022-08-21T04:49:25.422Z,136.89
2022-08-21T04:50:10.482Z,134.94
2022-08-21T04:50:55.851Z,123.20
2022-08-21T04:51:40.604Z,119.29
2022-08-21T04:52:25.755Z,129.07
2022-08-21T04:53:10.706Z,152.93
2022-08-21T04:53:55.932Z,141.17
2022-08-21T04:54:40.925Z,135.29
2022-08-21T04:55:26.000Z,114.70
2022-08-21T04:56:10.651Z,153.91
2022-08-21T04:56:56.221Z,136.27
2022-08-21T04:57:48.628Z,143.13
2022-08-21T04:58:26.217Z,130.39
2022-08-21T04:59:11.158Z,137.87
2022-08-21T04:59:56.033Z,164.27
2022-08-21T05:00:41.165Z,183.83
2022-08-21T05:01:26.364Z,148.63
2022-08-21T05:02:11.089Z,140.81
2022-08-21T05:02:56.827Z,169.16
2022-08-21T05:03:41.495Z,151.56
2022-08-21T05:04:26.295Z,147.65
2022-08-21T05:05:11.196Z,157.86
2022-08-21T05:05:56.629Z,232.72
2022-08-21T05:06:41.526Z,214.14
2022-08-21T05:07:41.568Z,191.17
2022-08-21T05:08:12.238Z,152.54
2022-08-21T05:09:01.571Z,173.07
2022-08-21T05:09:41.640Z,138.85
2022-08-21T05:10:26.599Z,175.03
2022-08-21T05:11:11.649Z,214.14
2022-08-21T05:11:56.808Z,220.01
2022-08-21T05:12:42.080Z,197.52
2022-08-21T05:13:27.023Z,195.56
2022-08-21T05:14:12.179Z,228.42
2022-08-21T05:14:57.264Z,199.99
2022-08-21T05:15:42.191Z,229.40
2022-08-21T05:16:36.582Z,195.09
2022-08-21T05:17:12.306Z,185.29
2022-08-21T05:18:01.381Z,186.27
2022-08-21T05:18:42.215Z,171.56
2022-08-21T05:19:27.169Z,225.48
2022-08-21T05:20:12.224Z,220.01
2022-08-21T05:20:57.177Z,220.01
2022-08-21T05:21:41.928Z,224.90
2022-08-21T05:22:27.300Z,202.41
2022-08-21T05:23:12.494Z,185.79
2022-08-21T05:23:58.132Z,191.65
2022-08-21T05:24:42.386Z,168.68
2022-08-21T05:25:28.261Z,155.03
2022-08-21T05:26:17.971Z,171.12
2022-08-21T05:26:57.518Z,347.68
2022-08-21T05:27:42.757Z,340.28
2022-08-21T05:28:27.641Z,348.10
2022-08-21T05:29:13.065Z,325.61
2022-08-21T05:29:57.680Z,272.80
2022-08-21T05:30:43.124Z,260.10
2022-08-21T05:31:28.011Z,315.83
2022-08-21T05:32:13.093Z,280.38
2022-08-21T05:32:58.352Z,350.96
2022-08-21T05:33:44.016Z,324.50
2022-08-21T05:34:28.195Z,347.04
2022-08-21T05:35:13.158Z,360.77
2022-08-21T05:35:58.311Z,354.89
2022-08-21T05:36:43.265Z,377.43
2022-08-21T05:37:28.333Z,366.65
2022-08-21T05:38:16.516Z,347.04
2022-08-21T05:38:58.398Z,348.02
2022-08-21T05:40:05.272Z,355.87
2022-08-21T05:40:28.831Z,257.83
2022-08-21T05:41:14.519Z,367.63
2022-08-21T05:41:58.861Z,359.79
2022-08-21T05:42:43.512Z,382.34
2022-08-21T05:43:28.972Z,387.24
2022-08-21T05:44:13.932Z,373.19
2022-08-21T05:44:58.894Z,380.25
2022-08-21T05:45:44.461Z,395.08
2022-08-21T05:46:29.222Z,395.84
2022-08-21T05:47:13.651Z,404.70
2022-08-21T05:47:58.903Z,394.85
2022-08-21T05:48:43.852Z,388.95
2022-08-21T05:49:29.364Z,375.16
2022-08-21T05:50:14.177Z,278.66
2022-08-21T05:50:59.183Z,318.05
2022-08-21T05:51:44.093Z,237.31
2022-08-21T05:52:29.033Z,247.15
2022-08-21T05:53:14.196Z,247.15
2022-08-21T05:53:59.351Z,256.02
2022-08-21T05:54:44.415Z,253.06
2022-08-21T05:55:29.463Z,234.35
2022-08-21T05:56:14.418Z,252.08
2022-08-21T05:56:59.582Z,262.91
2022-08-21T05:57:44.544Z,257.98
2022-08-21T05:58:29.410Z,233.37
2022-08-21T05:59:14.852Z,223.52
2022-08-21T05:59:59.806Z,257.00
2022-08-21T06:00:44.785Z,253.06
2022-08-21T06:01:31.589Z,253.06
